Terminal Aerodrome Forecast
Issued by NWS Jackson, MS

Home | Current Version | Previous Version | Text Only | Print | Product List | Glossary On
Versions: 1 2 3 4 5 6 7 8 9 10 11 12
502
FTUS44 KJAN 250534
TAFGWO
TAF
KGWO 250534Z 2506/2606 17020G30KT P6SM SCT025 BKN250
     FM250930 17017G26KT 4SM TSRA BKN025CB OVC090
     FM251100 18016KT 6SM -TSRA SCT025 BKN050CB OVC250
     FM251500 17017G25KT P6SM SHRA VCTS SCT025 BKN050CB OVC250
     FM252100 20014KT P6SM SHRA VCSH SCT050 BKN090 BKN250
     FM252300 20008KT P6SM FEW090 SCT250=

USA.gov is the U.S. government's official web portal to all federal, state and local government web resources and services.